createdAt,value
2019-04-05T00:00:45.346Z,51
2019-04-05T00:05:45.370Z,55
2019-04-05T00:10:45.336Z,50
2019-04-05T00:15:45.378Z,53
2019-04-05T00:20:45.353Z,50
2019-04-05T00:25:45.336Z,51
2019-04-05T00:30:45.329Z,49
2019-04-05T00:35:45.313Z,50
2019-04-05T00:40:45.277Z,47
2019-04-05T00:45:45.298Z,50
2019-04-05T00:50:45.299Z,52
2019-04-05T00:55:45.316Z,48
2019-04-05T01:00:45.252Z,45
2019-04-05T01:05:45.264Z,47
2019-04-05T01:10:45.261Z,48
2019-04-05T01:15:45.296Z,47
2019-04-05T01:20:45.243Z,50
2019-04-05T01:25:45.261Z,49
2019-04-05T01:30:45.220Z,51
2019-04-05T01:35:45.248Z,44
2019-04-05T01:40:45.249Z,50
2019-04-05T01:45:54.448Z,48
2019-04-05T01:50:45.220Z,45
2019-04-05T01:55:45.256Z,47
2019-04-05T02:00:45.231Z,49
2019-04-05T02:05:45.233Z,45
2019-04-05T02:10:45.184Z,48
2019-04-05T02:15:45.248Z,50
2019-04-05T02:20:45.230Z,43
2019-04-05T02:25:45.201Z,43
2019-04-05T02:30:45.212Z,43
2019-04-05T02:35:45.213Z,47
2019-04-05T02:40:45.199Z,44
2019-04-05T02:45:45.160Z,45
2019-04-05T02:50:45.179Z,44
2019-04-05T02:55:45.176Z,46
2019-04-05T03:00:45.181Z,48
2019-04-05T03:05:45.155Z,44
2019-04-05T03:10:45.156Z,41
2019-04-05T03:15:45.147Z,43
2019-04-05T03:20:45.155Z,46
2019-04-05T03:25:48.490Z,39
2019-04-05T03:30:45.136Z,44
2019-04-05T03:35:45.137Z,44
2019-04-05T03:40:45.129Z,45
2019-04-05T03:45:45.114Z,43
2019-04-05T03:50:45.992Z,45
2019-04-05T03:55:46.427Z,47
2019-04-05T04:00:45.074Z,44
2019-04-05T04:05:45.111Z,41
2019-04-05T04:10:45.102Z,45
2019-04-05T04:15:45.113Z,40
2019-04-05T04:20:45.164Z,46
2019-04-05T04:25:45.114Z,45
2019-04-05T04:30:45.092Z,47
2019-04-05T04:35:45.061Z,46
2019-04-05T04:40:45.074Z,51
2019-04-05T04:45:45.016Z,46
2019-04-05T04:50:45.011Z,47
2019-04-05T04:55:45.051Z,44
2019-04-05T05:00:45.013Z,52
2019-04-05T05:05:45.041Z,47
2019-04-05T05:10:45.011Z,53
2019-04-05T05:15:45.020Z,57
2019-04-05T05:20:45.017Z,49
2019-04-05T05:25:47.201Z,69
2019-04-05T05:30:45.082Z,131
2019-04-05T05:35:45.080Z,105
2019-04-05T05:40:44.998Z,113
2019-04-05T05:45:44.962Z,99
2019-04-05T05:50:44.992Z,85
2019-04-05T05:55:44.983Z,72
2019-04-05T06:00:44.927Z,62
2019-04-05T06:05:45.010Z,61
2019-04-05T06:10:44.927Z,62
2019-04-05T06:15:44.934Z,62
2019-04-05T06:20:44.993Z,62
2019-04-05T06:25:44.986Z,57
2019-04-05T06:30:44.914Z,60
2019-04-05T06:35:44.973Z,57
2019-04-05T06:40:44.934Z,58
2019-04-05T06:45:45.027Z,59
2019-04-05T06:50:47.886Z,60
2019-04-05T06:55:44.893Z,61
2019-04-05T07:00:57.754Z,59
2019-04-05T07:05:44.910Z,56
2019-04-05T07:10:45.458Z,62
2019-04-05T07:15:44.915Z,57
2019-04-05T07:20:44.884Z,55
2019-04-05T07:25:44.917Z,55
2019-04-05T07:30:44.847Z,55
2019-04-05T07:35:44.859Z,56
2019-04-05T07:40:44.909Z,56
2019-04-05T07:45:46.327Z,57
2019-04-05T07:50:44.837Z,57
2019-04-05T07:55:44.858Z,58
2019-04-05T08:00:44.866Z,58
2019-04-05T08:05:44.868Z,58
2019-04-05T08:10:44.816Z,58
2019-04-05T08:15:44.901Z,55
2019-04-05T08:20:44.820Z,52
2019-04-05T08:25:44.815Z,53
2019-04-05T08:30:44.824Z,51
2019-04-05T08:35:44.820Z,53
2019-04-05T08:40:44.790Z,51
2019-04-05T08:45:44.764Z,47
2019-04-05T08:50:44.783Z,49
2019-04-05T08:55:44.767Z,47
2019-04-05T09:00:46.411Z,50
2019-04-05T09:05:44.786Z,50
2019-04-05T09:10:44.796Z,49
2019-04-05T09:15:44.775Z,47
2019-04-05T09:20:44.815Z,46
2019-04-05T09:25:44.766Z,48
2019-04-05T09:30:44.744Z,44
2019-04-05T09:35:44.754Z,40
2019-04-05T09:40:44.889Z,39
2019-04-05T09:45:44.712Z,39
2019-04-05T09:50:44.725Z,37
2019-04-05T09:55:44.706Z,37
2019-04-05T10:00:44.704Z,36
2019-04-05T10:05:45.740Z,36
2019-04-05T10:10:44.700Z,29
2019-04-05T10:15:44.696Z,34
2019-04-05T10:20:44.729Z,28
2019-04-05T10:25:44.764Z,29
2019-04-05T10:30:44.681Z,32
2019-04-05T10:35:44.713Z,28
2019-04-05T10:40:44.683Z,30
2019-04-05T10:45:44.650Z,27
2019-04-05T10:50:44.674Z,25
2019-04-05T10:55:44.683Z,26
2019-04-05T11:00:44.686Z,32
2019-04-05T11:05:44.664Z,25
2019-04-05T11:10:44.663Z,33
2019-04-05T11:15:44.647Z,30
2019-04-05T11:20:44.679Z,30
2019-04-05T11:25:44.655Z,24
2019-04-05T11:30:44.634Z,27
2019-04-05T11:35:44.684Z,27
2019-04-05T11:40:44.661Z,24
2019-04-05T11:45:46.106Z,23
2019-04-05T11:50:44.632Z,24
2019-04-05T11:55:47.160Z,26
2019-04-05T12:00:44.564Z,25
2019-04-05T12:05:44.600Z,25
2019-04-05T12:10:44.611Z,29
2019-04-05T12:15:44.574Z,24
2019-04-05T12:21:00.692Z,22
2019-04-05T12:25:44.610Z,22
2019-04-05T12:30:46.277Z,24
2019-04-05T12:35:44.580Z,24
2019-04-05T12:40:44.619Z,25
2019-04-05T12:45:45.354Z,23
2019-04-05T12:50:45.539Z,22
2019-04-05T12:55:44.542Z,23
2019-04-05T13:00:44.558Z,25
2019-04-05T13:05:44.559Z,23
2019-04-05T13:10:44.554Z,24
2019-04-05T13:15:44.544Z,22
2019-04-05T13:20:44.562Z,27
2019-04-05T13:25:44.499Z,23
2019-04-05T13:30:45.228Z,23
2019-04-05T13:35:44.564Z,25
2019-04-05T13:40:44.495Z,24
2019-04-05T13:45:44.521Z,23
2019-04-05T13:50:44.510Z,22
2019-04-05T13:55:47.693Z,26
2019-04-05T14:00:49.915Z,26
2019-04-05T14:05:44.484Z,27
2019-04-05T14:10:44.507Z,31
2019-04-05T14:15:44.485Z,27
2019-04-05T14:20:44.543Z,31
2019-04-05T14:25:44.470Z,31
2019-04-05T14:30:44.522Z,28
2019-04-05T14:35:44.457Z,34
2019-04-05T14:40:44.456Z,32
2019-04-05T14:45:44.483Z,34
2019-04-05T14:50:44.483Z,31
2019-04-05T14:55:44.486Z,38
2019-04-05T15:00:48.504Z,35
2019-04-05T15:05:44.471Z,35
2019-04-05T15:10:44.412Z,39
2019-04-05T15:15:44.451Z,43
2019-04-05T15:20:44.450Z,45
2019-04-05T15:25:50.591Z,45
2019-04-05T15:30:49.960Z,44
2019-04-05T15:35:49.471Z,43
2019-04-05T15:40:49.435Z,43
2019-04-05T15:45:49.446Z,44
2019-04-05T15:50:57.858Z,42
2019-04-05T15:55:49.421Z,47
2019-04-05T16:00:49.411Z,50
2019-04-05T16:05:49.419Z,44
2019-04-05T16:10:49.475Z,43
2019-04-05T16:15:49.385Z,44
2019-04-05T16:20:49.417Z,63
2019-04-05T16:25:49.413Z,58
2019-04-05T16:30:49.384Z,55
2019-04-05T16:35:49.381Z,51
2019-04-05T16:40:49.399Z,47
2019-04-05T16:45:49.381Z,45
2019-04-05T16:50:49.369Z,47
2019-04-05T16:55:49.379Z,49
2019-04-05T17:00:49.390Z,49
2019-04-05T17:05:49.408Z,48
2019-04-05T17:10:49.396Z,47
2019-04-05T17:15:49.338Z,46
2019-04-05T17:20:49.456Z,47
2019-04-05T17:25:51.412Z,45
2019-04-05T17:30:49.367Z,46
2019-04-05T17:35:49.317Z,41
2019-04-05T17:40:49.358Z,44
2019-04-05T17:45:49.307Z,47
2019-04-05T17:50:49.375Z,48
2019-04-05T17:55:49.313Z,49
2019-04-05T18:00:49.337Z,48
2019-04-05T18:05:49.364Z,46
2019-04-05T18:10:49.281Z,49
2019-04-05T18:15:53.394Z,46
2019-04-05T18:20:49.366Z,50
2019-04-05T18:25:49.314Z,56
2019-04-05T18:30:49.333Z,51
2019-04-05T18:35:49.244Z,49
2019-04-05T18:40:49.267Z,53
2019-04-05T18:45:49.288Z,54
2019-04-05T18:50:49.278Z,51
2019-04-05T18:55:49.245Z,49
2019-04-05T19:00:49.331Z,53
2019-04-05T19:05:49.278Z,46
2019-04-05T19:10:49.250Z,47
2019-04-05T19:15:50.801Z,53
2019-04-05T19:20:50.772Z,50
2019-04-05T19:25:50.769Z,53
2019-04-05T19:50:50.778Z,57
2019-04-05T19:55:50.780Z,58
2019-04-05T20:00:50.748Z,58
2019-04-05T20:05:50.729Z,61
2019-04-05T20:10:50.747Z,65
2019-04-05T20:15:50.688Z,64
2019-04-05T20:20:50.747Z,62
2019-04-05T20:25:50.753Z,64
2019-04-05T20:30:50.699Z,65
2019-04-05T20:35:50.720Z,64
2019-04-05T20:40:50.720Z,63
2019-04-05T20:45:50.683Z,63
2019-04-05T20:50:50.670Z,62
2019-04-05T20:55:50.669Z,66
2019-04-05T21:40:51.387Z,66
2019-04-05T21:45:51.387Z,64
2019-04-05T21:50:51.393Z,67
2019-04-05T21:55:51.399Z,65
2019-04-05T22:00:51.349Z,66
2019-04-05T22:05:51.407Z,68
2019-04-05T22:10:51.383Z,71
2019-04-05T22:15:51.349Z,65
2019-04-05T22:20:51.341Z,65
2019-04-05T22:25:51.392Z,65
2019-04-05T22:30:51.370Z,66
2019-04-05T22:35:51.339Z,66
2019-04-05T22:40:51.366Z,62
2019-04-05T22:45:51.372Z,62
2019-04-05T22:50:51.336Z,66
2019-04-05T22:55:51.314Z,64
2019-04-05T23:00:51.327Z,62
2019-04-05T23:05:51.313Z,60
2019-04-05T23:10:51.317Z,65
2019-04-05T23:15:51.287Z,62
2019-04-05T23:20:51.357Z,63
2019-04-05T23:25:51.287Z,61
2019-04-05T23:30:51.319Z,64
2019-04-05T23:35:51.308Z,63
2019-04-05T23:40:51.278Z,65
2019-04-05T23:45:51.282Z,65
2019-04-05T23:50:51.254Z,62
2019-04-05T23:55:51.269Z,64
